Time;durP1;ratioP1;P1;durP2;ratioP2;P2;SDS_P1;SDS_P2;PMS_P1;PMS_P2;Temp;Humidity;BMP_temperature;BMP_pressure;BME280_temperature;BME280_humidity;BME280_pressure;Samples;Min_cycle;Max_cycle;Signal;HPM_P1;HPM_P2
2022/09/19 00:00:55;;;;;;;13.93;1.65;;;;;;;;;;5115094;28;20026;-78
2022/09/19 00:03:21;;;;;;;23.08;2.45;;;;;;;;;;5114800;28;20027;-78
2022/09/19 00:05:47;;;;;;;12.88;1.98;;;;;;;;;;5115002;28;20024;-78
2022/09/19 00:08:13;;;;;;;14.57;2.45;;;;;;;;;;5114897;28;20073;-78
2022/09/19 00:10:40;;;;;;;16.95;1.98;;;;;;;;;;5114520;28;20032;-78
2022/09/19 00:13:07;;;;;;;21.48;1.67;;;;;;;;;;5114663;28;20012;-78
2022/09/19 00:15:34;;;;;;;12.85;1.65;;;;;;;;;;5114508;28;20032;-78
2022/09/19 00:18:00;;;;;;;14.20;2.05;;;;;;;;;;5114092;28;20023;-78
2022/09/19 00:20:26;;;;;;;16.13;1.83;;;;;;;;;;5114612;28;20089;-78
2022/09/19 00:25:37;;;;;;;11.18;2.20;;;;;;;;;;5114514;28;20062;-78
2022/09/19 00:28:03;;;;;;;17.25;2.08;;;;;;;;;;5114372;28;20458;-78
2022/09/19 00:30:29;;;;;;;16.33;2.40;;;;;;;;;;5114198;28;20035;-78
2022/09/19 00:32:55;;;;;;;14.23;1.90;;;;;;;;;;5114217;28;20444;-78
2022/09/19 00:35:21;;;;;;;21.73;2.25;;;;;;;;;;5114211;28;20027;-78
2022/09/19 00:37:47;;;;;;;23.30;2.25;;;;;;;;;;5114259;28;20031;-78
2022/09/19 00:40:13;;;;;;;11.15;2.28;;;;;;;;;;5114131;28;20020;-78
2022/09/19 00:42:39;;;;;;;15.60;2.17;;;;;;;;;;5113837;28;20027;-78
2022/09/19 00:45:14;;;;;;;13.98;2.22;;;;;;;;;;5092332;28;20015;-78
2022/09/19 00:47:42;;;;;;;12.20;2.15;;;;;;;;;;5106458;28;20019;-78
2022/09/19 00:50:10;;;;;;;8.43;1.70;;;;;;;;;;5100113;28;20542;-78
2022/09/19 00:52:41;;;;;;;13.18;1.75;;;;;;;;;;5093395;28;20028;-78
2022/09/19 00:55:08;;;;;;;14.50;1.85;;;;;;;;;;5093310;28;20069;-78
2022/09/19 00:57:38;;;;;;;10.30;1.40;;;;;;;;;;5093424;28;20104;-80
2022/09/19 01:00:05;;;;;;;16.48;1.50;;;;;;;;;;5093699;28;20095;-78
2022/09/19 01:02:32;;;;;;;13.10;1.60;;;;;;;;;;5093070;28;20119;-78
2022/09/19 01:04:59;;;;;;;21.80;2.20;;;;;;;;;;5093239;28;20016;-78
2022/09/19 01:07:35;;;;;;;14.93;1.67;;;;;;;;;;5093056;28;20069;-78
2022/09/19 01:10:14;;;;;;;14.40;1.77;;;;;;;;;;5093297;28;20031;-77
2022/09/19 01:12:46;;;;;;;16.70;2.15;;;;;;;;;;5093074;28;20016;-78
2022/09/19 01:15:12;;;;;;;14.68;1.73;;;;;;;;;;5092851;28;20051;-78
2022/09/19 01:17:46;;;;;;;18.38;3.67;;;;;;;;;;5093007;28;20417;-78
2022/09/19 01:20:30;;;;;;;17.52;1.80;;;;;;;;;;5100842;28;20042;-78
2022/09/19 01:23:12;;;;;;;11.95;1.42;;;;;;;;;;5113310;28;20085;-78
2022/09/19 01:25:52;;;;;;;12.95;1.73;;;;;;;;;;5113120;28;20027;-78
2022/09/19 01:28:26;;;;;;;24.40;2.55;;;;;;;;;;5112309;28;20043;-78
2022/09/19 01:31:27;;;;;;;19.67;2.10;;;;;;;;;;5112940;28;20073;-78
2022/09/19 01:34:12;;;;;;;15.18;1.55;;;;;;;;;;5058832;28;20031;-78
2022/09/19 01:36:58;;;;;;;9.82;1.40;;;;;;;;;;5112953;28;20019;-78
2022/09/19 01:39:25;;;;;;;13.35;1.92;;;;;;;;;;5112919;28;20480;-78
2022/09/19 01:41:53;;;;;;;14.65;1.83;;;;;;;;;;5113136;28;20028;-78
2022/09/19 01:44:20;;;;;;;11.95;1.83;;;;;;;;;;5112835;28;20046;-78
2022/09/19 01:46:52;;;;;;;17.15;2.83;;;;;;;;;;5112863;28;20038;-78
2022/09/19 01:49:37;;;;;;;20.63;1.67;;;;;;;;;;5112567;28;20507;-78
2022/09/19 01:52:21;;;;;;;17.35;1.90;;;;;;;;;;5112403;28;20028;-78
2022/09/19 01:55:01;;;;;;;19.98;2.65;;;;;;;;;;5112841;28;20454;-78
2022/09/19 01:57:59;;;;;;;18.40;2.05;;;;;;;;;;5112926;28;20020;-78
2022/09/19 02:00:26;;;;;;;13.30;1.63;;;;;;;;;;5050437;28;20032;-78
2022/09/19 02:02:56;;;;;;;15.25;1.95;;;;;;;;;;5112706;28;20055;-78
2022/09/19 02:05:25;;;;;;;14.98;1.70;;;;;;;;;;5092872;28;20335;-78
2022/09/19 02:08:02;;;;;;;12.32;1.48;;;;;;;;;;5090764;28;20106;-79
2022/09/19 02:10:34;;;;;;;16.67;1.90;;;;;;;;;;5094461;28;20382;-78
2022/09/19 02:13:03;;;;;;;12.32;1.45;;;;;;;;;;5092173;28;20016;-78
2022/09/19 02:15:30;;;;;;;9.05;1.60;;;;;;;;;;5091955;28;20101;-78
2022/09/19 02:17:59;;;;;;;10.50;1.95;;;;;;;;;;5092121;28;20443;-78
2022/09/19 02:20:27;;;;;;;15.38;1.42;;;;;;;;;;5092109;28;20020;-78
2022/09/19 02:22:57;;;;;;;6.85;1.42;;;;;;;;;;5091999;28;20540;-78
2022/09/19 02:25:27;;;;;;;13.80;1.45;;;;;;;;;;5092542;28;20028;-78
2022/09/19 02:27:56;;;;;;;12.07;1.52;;;;;;;;;;5092100;28;20032;-78
2022/09/19 02:30:22;;;;;;;11.32;1.75;;;;;;;;;;5091981;28;20036;-78
2022/09/19 02:32:49;;;;;;;13.10;1.40;;;;;;;;;;5092104;28;20382;-78
2022/09/19 02:35:34;;;;;;;9.10;1.70;;;;;;;;;;5091980;28;20058;-78
2022/09/19 02:38:02;;;;;;;17.52;2.00;;;;;;;;;;5092010;28;20023;-78
2022/09/19 02:40:35;;;;;;;14.23;1.55;;;;;;;;;;5094078;28;20035;-78
2022/09/19 02:43:03;;;;;;;19.02;2.08;;;;;;;;;;5096049;28;20057;-78
2022/09/19 02:45:40;;;;;;;14.20;1.67;;;;;;;;;;5096153;28;20016;-78
2022/09/19 02:48:09;;;;;;;14.82;1.80;;;;;;;;;;5095875;28;20030;-78
2022/09/19 02:50:47;;;;;;;9.32;1.60;;;;;;;;;;5113087;28;20031;-78
2022/09/19 02:53:19;;;;;;;10.18;1.60;;;;;;;;;;5115925;28;20426;-78
2022/09/19 02:55:50;;;;;;;18.70;2.08;;;;;;;;;;5116319;28;20028;-78
2022/09/19 02:58:18;;;;;;;18.67;1.50;;;;;;;;;;5116070;28;20101;-78
2022/09/19 03:00:51;;;;;;;12.10;1.90;;;;;;;;;;5116085;28;20026;-78
2022/09/19 03:06:05;;;;;;;9.80;2.15;;;;;;;;;;5116325;28;20042;-78
2022/09/19 03:08:35;;;;;;;16.20;1.60;;;;;;;;;;5115926;28;20485;-78
2022/09/19 03:11:02;;;;;;;11.75;2.00;;;;;;;;;;5115751;28;20020;-78
2022/09/19 03:13:28;;;;;;;14.88;1.20;;;;;;;;;;5116064;28;20031;-78
2022/09/19 03:15:56;;;;;;;14.55;2.17;;;;;;;;;;5115597;28;20039;-78
2022/09/19 03:18:23;;;;;;;16.42;1.70;;;;;;;;;;5115659;28;20481;-78
2022/09/19 03:20:53;;;;;;;10.10;1.75;;;;;;;;;;5102052;28;20381;-78
2022/09/19 03:23:23;;;;;;;15.50;1.63;;;;;;;;;;5095144;28;20026;-78
2022/09/19 03:25:49;;;;;;;13.00;1.30;;;;;;;;;;5095107;28;20032;-78
2022/09/19 03:28:19;;;;;;;10.15;1.50;;;;;;;;;;5094919;28;20028;-78
2022/09/19 03:30:45;;;;;;;14.32;1.70;;;;;;;;;;5095027;28;20120;-78
2022/09/19 03:33:15;;;;;;;15.63;2.25;;;;;;;;;;5094865;28;20028;-78
2022/09/19 03:35:41;;;;;;;19.67;1.60;;;;;;;;;;5095247;28;20051;-78
2022/09/19 03:38:07;;;;;;;12.63;1.85;;;;;;;;;;5094933;28;20089;-78
2022/09/19 03:40:34;;;;;;;10.63;1.65;;;;;;;;;;5094841;28;20031;-78
2022/09/19 03:43:00;;;;;;;15.60;1.48;;;;;;;;;;5094791;28;20022;-78
2022/09/19 03:45:26;;;;;;;11.68;1.90;;;;;;;;;;5094762;28;20482;-78
2022/09/19 03:47:53;;;;;;;18.05;1.90;;;;;;;;;;5094766;28;20059;-78
2022/09/19 03:50:19;;;;;;;9.93;1.45;;;;;;;;;;5094760;28;20024;-78
2022/09/19 03:52:47;;;;;;;14.57;1.70;;;;;;;;;;5071988;28;20021;-78
2022/09/19 03:55:13;;;;;;;13.25;2.10;;;;;;;;;;5073884;28;20100;-78
2022/09/19 03:57:39;;;;;;;16.65;1.83;;;;;;;;;;5094605;28;20422;-78
2022/09/19 04:00:06;;;;;;;18.17;1.77;;;;;;;;;;5094340;28;20020;-78
2022/09/19 04:02:32;;;;;;;11.45;1.70;;;;;;;;;;5101627;28;20111;-78
2022/09/19 04:04:58;;;;;;;17.70;1.92;;;;;;;;;;5114487;28;20020;-78
2022/09/19 04:07:27;;;;;;;19.23;1.92;;;;;;;;;;5114727;28;20019;-78
2022/09/19 04:09:56;;;;;;;15.00;2.25;;;;;;;;;;5103339;28;20027;-78
2022/09/19 04:12:22;;;;;;;16.30;1.85;;;;;;;;;;5108497;28;20039;-78
2022/09/19 04:14:48;;;;;;;16.33;2.53;;;;;;;;;;5114233;28;20024;-78
2022/09/19 04:17:15;;;;;;;14.48;2.03;;;;;;;;;;5114137;28;20043;-78
2022/09/19 04:19:42;;;;;;;17.20;1.60;;;;;;;;;;5114285;28;20077;-79
2022/09/19 04:22:08;;;;;;;17.90;1.70;;;;;;;;;;5114617;28;20024;-78
2022/09/19 04:24:34;;;;;;;12.95;1.73;;;;;;;;;;5114415;28;20342;-78
2022/09/19 04:27:06;;;;;;;16.10;2.13;;;;;;;;;;5094345;28;20351;-79
2022/09/19 04:29:32;;;;;;;14.68;1.58;;;;;;;;;;5093878;28;20027;-78
2022/09/19 04:32:02;;;;;;;8.93;1.35;;;;;;;;;;5108495;28;20027;-81
2022/09/19 04:34:28;;;;;;;16.98;1.83;;;;;;;;;;5114465;28;20027;-81
2022/09/19 04:36:56;;;;;;;11.73;2.03;;;;;;;;;;5114312;28;20027;-81
2022/09/19 04:39:22;;;;;;;13.20;1.55;;;;;;;;;;5114102;28;20016;-81
2022/09/19 04:41:52;;;;;;;16.85;2.13;;;;;;;;;;5114251;28;20031;-81
2022/09/19 04:44:18;;;;;;;17.90;1.73;;;;;;;;;;5114073;28;20024;-81
2022/09/19 04:46:44;;;;;;;16.00;1.67;;;;;;;;;;5114125;28;20034;-81
2022/09/19 04:49:13;;;;;;;11.18;1.55;;;;;;;;;;5114164;28;20019;-82
2022/09/19 04:51:39;;;;;;;11.73;1.55;;;;;;;;;;5113808;28;20076;-80
2022/09/19 04:54:06;;;;;;;11.63;1.70;;;;;;;;;;5114169;28;20028;-81
2022/09/19 04:56:32;;;;;;;13.95;1.60;;;;;;;;;;5092178;28;20354;-81
2022/09/19 04:59:01;;;;;;;18.88;2.05;;;;;;;;;;5108993;28;20514;-83
2022/09/19 05:01:30;;;;;;;7.65;1.58;;;;;;;;;;5113915;28;20027;-82
2022/09/19 05:03:56;;;;;;;25.60;2.65;;;;;;;;;;5113892;28;20035;-81
2022/09/19 05:06:22;;;;;;;16.35;1.88;;;;;;;;;;5113668;28;20466;-81
2022/09/19 05:08:50;;;;;;;17.52;2.55;;;;;;;;;;5113856;28;20098;-81
2022/09/19 05:11:18;;;;;;;15.57;2.13;;;;;;;;;;5113585;28;20031;-81
2022/09/19 05:13:44;;;;;;;10.98;2.00;;;;;;;;;;5113568;28;20076;-83
2022/09/19 05:16:13;;;;;;;11.07;2.08;;;;;;;;;;5092138;28;20055;-81
2022/09/19 05:18:39;;;;;;;15.13;1.80;;;;;;;;;;5113441;28;20020;-81
2022/09/19 05:21:12;;;;;;;20.42;2.33;;;;;;;;;;5097865;28;20103;-81
2022/09/19 05:23:39;;;;;;;20.13;2.35;;;;;;;;;;5071207;28;20036;-81
2022/09/19 05:26:05;;;;;;;17.42;2.08;;;;;;;;;;5071650;28;20043;-83
2022/09/19 05:28:32;;;;;;;15.43;2.08;;;;;;;;;;5092747;28;20484;-81
2022/09/19 05:31:04;;;;;;;15.10;2.13;;;;;;;;;;5108611;28;20073;-81
2022/09/19 05:33:31;;;;;;;21.70;2.20;;;;;;;;;;5113299;28;20345;-84
2022/09/19 05:36:00;;;;;;;15.60;2.25;;;;;;;;;;5113384;28;20567;-82
2022/09/19 05:38:26;;;;;;;10.48;1.98;;;;;;;;;;5094201;28;20470;-81
2022/09/19 05:40:56;;;;;;;15.73;2.22;;;;;;;;;;5091525;28;20039;-83
2022/09/19 05:43:22;;;;;;;17.40;2.15;;;;;;;;;;5111818;28;20551;-83
2022/09/19 05:45:50;;;;;;;10.52;1.80;;;;;;;;;;5113268;28;20420;-81
2022/09/19 05:48:16;;;;;;;18.95;2.40;;;;;;;;;;5113371;28;20039;-81
2022/09/19 05:50:46;;;;;;;14.75;2.08;;;;;;;;;;5113443;28;20028;-79
2022/09/19 05:55:58;;;;;;;12.25;1.90;;;;;;;;;;5113417;28;20031;-83
2022/09/19 05:58:24;;;;;;;7.93;1.55;;;;;;;;;;5112869;28;20015;-83
2022/09/19 06:00:50;;;;;;;13.52;1.52;;;;;;;;;;5090852;28;20523;-86
2022/09/19 06:03:17;;;;;;;11.65;2.10;;;;;;;;;;5110803;28;20027;-86
2022/09/19 06:05:51;;;;;;;12.02;2.25;;;;;;;;;;5113149;28;20023;-88
2022/09/19 06:08:19;;;;;;;12.52;2.13;;;;;;;;;;5106826;28;20020;-86
2022/09/19 06:10:46;;;;;;;11.63;1.73;;;;;;;;;;5096916;28;20102;-86
2022/09/19 06:13:13;;;;;;;12.30;2.58;;;;;;;;;;5100907;28;20027;-86
2022/09/19 06:15:39;;;;;;;15.07;2.70;;;;;;;;;;5110013;28;20039;-86
2022/09/19 06:18:05;;;;;;;14.30;2.17;;;;;;;;;;5107869;28;20396;-85
2022/09/19 06:20:31;;;;;;;12.80;2.20;;;;;;;;;;5110228;28;20019;-86
2022/09/19 06:23:00;;;;;;;14.48;2.75;;;;;;;;;;5112807;28;20355;-86
2022/09/19 06:25:26;;;;;;;12.52;2.05;;;;;;;;;;5109272;28;20122;-86
2022/09/19 06:27:53;;;;;;;21.05;2.10;;;;;;;;;;5091222;28;20047;-86
2022/09/19 06:30:19;;;;;;;10.57;1.90;;;;;;;;;;5112257;28;20026;-85
2022/09/19 06:32:45;;;;;;;7.70;1.98;;;;;;;;;;5116340;28;20077;-86
2022/09/19 06:35:11;;;;;;;19.42;2.60;;;;;;;;;;5108002;28;20022;-87
2022/09/19 06:37:37;;;;;;;17.30;2.70;;;;;;;;;;5083258;28;20052;-86
2022/09/19 06:40:04;;;;;;;12.40;2.65;;;;;;;;;;5105901;28;20023;-89
2022/09/19 06:42:30;;;;;;;15.55;2.00;;;;;;;;;;5102591;28;20516;-88
2022/09/19 06:44:56;;;;;;;18.80;2.25;;;;;;;;;;5097576;28;20501;-89
2022/09/19 06:47:22;;;;;;;14.65;2.42;;;;;;;;;;5116415;28;20054;-87
2022/09/19 06:49:48;;;;;;;10.45;1.70;;;;;;;;;;5084930;28;20389;-88
2022/09/19 06:52:14;;;;;;;15.18;2.22;;;;;;;;;;5116683;28;20107;-89
2022/09/19 06:54:40;;;;;;;20.65;2.08;;;;;;;;;;5119123;28;20474;-86
2022/09/19 06:57:07;;;;;;;16.70;1.80;;;;;;;;;;5108205;28;20103;-88
2022/09/19 06:59:33;;;;;;;11.38;2.25;;;;;;;;;;5113071;28;20122;-87
2022/09/19 07:01:59;;;;;;;17.70;2.42;;;;;;;;;;5098801;28;20072;-89
2022/09/19 07:04:25;;;;;;;16.27;2.40;;;;;;;;;;5116131;28;20034;-86
2022/09/19 07:06:51;;;;;;;10.90;1.90;;;;;;;;;;5116963;28;20347;-84
2022/09/19 07:09:18;;;;;;;16.77;2.38;;;;;;;;;;5111640;28;20020;-89
2022/09/19 07:11:45;;;;;;;14.27;1.67;;;;;;;;;;5119104;28;20028;-88
2022/09/19 07:14:11;;;;;;;17.00;1.90;;;;;;;;;;5090465;28;20031;-90
2022/09/19 07:16:37;;;;;;;12.80;1.83;;;;;;;;;;5102904;28;20043;-91
2022/09/19 07:19:03;;;;;;;11.68;2.88;;;;;;;;;;5108633;28;20022;-90
2022/09/19 07:21:29;;;;;;;11.73;1.95;;;;;;;;;;5094272;28;20430;-90
2022/09/19 07:23:58;;;;;;;14.07;2.03;;;;;;;;;;5118812;28;20495;-90
2022/09/19 07:26:25;;;;;;;15.68;2.03;;;;;;;;;;5093755;28;20086;-91
2022/09/19 07:28:51;;;;;;;13.32;2.03;;;;;;;;;;5084513;28;20067;-91
2022/09/19 07:31:17;;;;;;;10.32;1.67;;;;;;;;;;5089398;28;20028;-89
2022/09/19 07:33:43;;;;;;;21.98;1.73;;;;;;;;;;5095378;28;20016;-87
2022/09/19 07:36:10;;;;;;;10.82;1.88;;;;;;;;;;5095465;28;20020;-88
2022/09/19 07:38:38;;;;;;;14.90;1.88;;;;;;;;;;5115062;28;20042;-88
2022/09/19 07:41:04;;;;;;;16.33;1.70;;;;;;;;;;5115620;28;20026;-87
2022/09/19 07:43:30;;;;;;;9.38;1.52;;;;;;;;;;5115588;28;20023;-85
2022/09/19 07:45:57;;;;;;;10.05;1.60;;;;;;;;;;5115566;28;20026;-83
2022/09/19 07:48:23;;;;;;;9.98;1.73;;;;;;;;;;5095829;28;20059;-87
2022/09/19 07:50:49;;;;;;;12.40;1.33;;;;;;;;;;5115480;28;20024;-87
2022/09/19 07:53:16;;;;;;;10.65;1.30;;;;;;;;;;5115278;28;20051;-87
2022/09/19 07:55:42;;;;;;;11.50;1.42;;;;;;;;;;5115582;28;20377;-87
2022/09/19 07:58:10;;;;;;;9.95;1.35;;;;;;;;;;5115153;28;20031;-86
2022/09/19 08:00:36;;;;;;;9.10;1.65;;;;;;;;;;5093773;28;20463;-87
2022/09/19 08:03:12;;;;;;;13.77;1.88;;;;;;;;;;5110414;28;20024;-86
2022/09/19 08:05:39;;;;;;;12.90;1.83;;;;;;;;;;5114604;28;20016;-86
2022/09/19 08:08:06;;;;;;;7.93;1.30;;;;;;;;;;5114788;28;20011;-87
2022/09/19 08:10:32;;;;;;;14.40;1.50;;;;;;;;;;5097545;28;20400;-86
2022/09/19 08:12:59;;;;;;;12.25;1.85;;;;;;;;;;5094501;28;20382;-86
2022/09/19 08:15:25;;;;;;;13.43;1.60;;;;;;;;;;5075296;28;20178;-86
2022/09/19 08:18:26;;;;;;;14.00;1.77;;;;;;;;;;5075503;28;20025;-86
2022/09/19 08:20:53;;;;;;;12.30;1.40;;;;;;;;;;5057648;28;20040;-86
2022/09/19 08:23:20;;;;;;;8.20;1.60;;;;;;;;;;5114609;28;20031;-86
2022/09/19 08:25:47;;;;;;;13.20;1.20;;;;;;;;;;5114662;28;20074;-86
2022/09/19 08:28:16;;;;;;;13.70;2.00;;;;;;;;;;5114637;28;20027;-85
2022/09/19 08:30:43;;;;;;;9.23;1.10;;;;;;;;;;5114519;28;20059;-85
2022/09/19 08:33:10;;;;;;;9.98;1.98;;;;;;;;;;5114637;28;20531;-86
2022/09/19 08:35:37;;;;;;;7.18;1.98;;;;;;;;;;5114843;28;20084;-83
2022/09/19 08:38:04;;;;;;;10.13;1.02;;;;;;;;;;5114369;28;20011;-85
2022/09/19 08:40:34;;;;;;;11.63;1.40;;;;;;;;;;5114313;28;20076;-85
2022/09/19 08:43:06;;;;;;;15.75;1.50;;;;;;;;;;5114478;28;20015;-86
2022/09/19 08:45:50;;;;;;;7.68;1.30;;;;;;;;;;5114343;28;20027;-86
2022/09/19 08:48:29;;;;;;;11.15;0.93;;;;;;;;;;5114238;28;20027;-86
2022/09/19 08:51:03;;;;;;;10.48;1.20;;;;;;;;;;5113774;28;20023;-86
2022/09/19 08:53:32;;;;;;;6.88;1.15;;;;;;;;;;5095520;28;20024;-86
2022/09/19 08:56:00;;;;;;;7.35;1.30;;;;;;;;;;5114313;28;20398;-78
2022/09/19 08:58:27;;;;;;;9.68;1.60;;;;;;;;;;5113891;28;20047;-79
2022/09/19 09:00:54;;;;;;;6.57;0.93;;;;;;;;;;5114245;28;20028;-81
2022/09/19 09:03:24;;;;;;;10.10;1.95;;;;;;;;;;5113899;28;20140;-81
2022/09/19 09:05:55;;;;;;;9.32;1.38;;;;;;;;;;5114691;28;20035;-81
2022/09/19 09:08:36;;;;;;;7.78;1.23;;;;;;;;;;5113400;28;20247;-81
2022/09/19 09:11:18;;;;;;;12.13;0.88;;;;;;;;;;5113462;28;20031;-83
2022/09/19 09:13:47;;;;;;;5.78;0.70;;;;;;;;;;5114417;28;20038;-82
2022/09/19 09:16:34;;;;;;;6.70;0.73;;;;;;;;;;5104850;28;20059;-82
2022/09/19 09:19:09;;;;;;;6.72;1.30;;;;;;;;;;5093319;28;20031;-83
2022/09/19 09:21:40;;;;;;;7.10;0.82;;;;;;;;;;5093828;28;20020;-83
2022/09/19 09:24:45;;;;;;;5.07;0.80;;;;;;;;;;5071881;28;20417;-82
2022/09/19 09:27:14;;;;;;;2.97;0.52;;;;;;;;;;4991781;28;20052;-82
2022/09/19 09:29:45;;;;;;;4.97;0.77;;;;;;;;;;4991732;28;20030;-83
2022/09/19 09:32:15;;;;;;;3.72;0.70;;;;;;;;;;5041517;28;20045;-84
2022/09/19 09:34:44;;;;;;;5.50;0.52;;;;;;;;;;5093205;28;20031;-84
2022/09/19 09:37:20;;;;;;;2.85;0.45;;;;;;;;;;5093015;28;20020;-85
2022/09/19 09:40:12;;;;;;;6.15;0.90;;;;;;;;;;5098282;28;20085;-85
2022/09/19 09:42:45;;;;;;;13.27;0.80;;;;;;;;;;5081430;28;20042;-86
2022/09/19 09:45:20;;;;;;;5.28;0.77;;;;;;;;;;5102751;28;20023;-85
2022/09/19 09:48:07;;;;;;;6.82;1.05;;;;;;;;;;5113269;28;20038;-86
2022/09/19 09:50:50;;;;;;;5.38;0.80;;;;;;;;;;5112484;28;20519;-84
2022/09/19 09:53:16;;;;;;;;;;;;;;;;;;5112105;28;20032;-86
2022/09/19 09:56:17;;;;;;;5.18;0.60;;;;;;;;;;5092814;28;19965;-86
2022/09/19 09:59:01;;;;;;;7.28;1.20;;;;;;;;;;5088233;28;20432;-86
2022/09/19 10:04:32;;;;;;;7.65;0.80;;;;;;;;;;5113080;28;20377;-85
2022/09/19 10:07:18;;;;;;;7.32;1.00;;;;;;;;;;5113044;28;20027;-85
2022/09/19 10:09:53;;;;;;;4.07;0.90;;;;;;;;;;5102304;28;20024;-85
2022/09/19 10:12:24;;;;;;;4.32;1.15;;;;;;;;;;5092480;28;20028;-85
2022/09/19 10:14:54;;;;;;;4.53;0.90;;;;;;;;;;5092253;28;20107;-84
2022/09/19 10:17:21;;;;;;;5.18;0.60;;;;;;;;;;5092786;28;20042;-84
2022/09/19 10:19:50;;;;;;;5.63;0.70;;;;;;;;;;5071092;28;20028;-85
2022/09/19 10:22:17;;;;;;;6.13;1.30;;;;;;;;;;5090099;28;20131;-85
2022/09/19 10:24:43;;;;;;;7.22;1.02;;;;;;;;;;5092887;28;20120;-84
2022/09/19 10:27:16;;;;;;;6.07;1.00;;;;;;;;;;5092233;28;20521;-85
2022/09/19 10:30:06;;;;;;;2.85;0.80;;;;;;;;;;5092352;28;20054;-85
2022/09/19 10:32:39;;;;;;;7.72;1.60;;;;;;;;;;5092453;28;20107;-84
2022/09/19 10:35:28;;;;;;;4.90;0.75;;;;;;;;;;5092657;28;20450;-87
2022/09/19 10:38:14;;;;;;;5.97;1.02;;;;;;;;;;5070863;28;20390;-84
2022/09/19 10:40:58;;;;;;;5.40;0.60;;;;;;;;;;5081407;28;20020;-86
2022/09/19 10:43:33;;;;;;;6.20;0.85;;;;;;;;;;5089031;28;20470;-87
2022/09/19 10:46:06;;;;;;;4.03;0.65;;;;;;;;;;5091190;28;20028;-88
2022/09/19 10:48:37;;;;;;;8.50;1.10;;;;;;;;;;5097168;28;20020;-87
2022/09/19 10:51:08;;;;;;;5.45;0.75;;;;;;;;;;5097459;28;20458;-87
2022/09/19 10:53:36;;;;;;;5.10;0.80;;;;;;;;;;5097505;28;20046;-88
2022/09/19 10:56:22;;;;;;;4.22;0.70;;;;;;;;;;5108035;28;20020;-87
2022/09/19 10:58:49;;;;;;;3.85;0.50;;;;;;;;;;5110084;28;20047;-88
2022/09/19 11:01:21;;;;;;;5.95;0.60;;;;;;;;;;5108945;28;20373;-87
2022/09/19 11:04:02;;;;;;;5.27;0.40;;;;;;;;;;5116346;28;20081;-86
2022/09/19 11:06:29;;;;;;;4.45;0.47;;;;;;;;;;5098792;28;20253;-88
2022/09/19 11:08:56;;;;;;;3.15;0.50;;;;;;;;;;5099526;28;20023;-88
2022/09/19 11:11:23;;;;;;;2.60;0.30;;;;;;;;;;5096653;28;20020;-89
2022/09/19 11:14:08;;;;;;;5.80;0.55;;;;;;;;;;5116501;28;20028;-89
2022/09/19 11:16:39;;;;;;;5.90;0.75;;;;;;;;;;5104019;28;20044;-88
2022/09/19 11:19:27;;;;;;;2.55;0.60;;;;;;;;;;5095776;28;20020;-89
2022/09/19 11:22:06;;;;;;;5.68;0.80;;;;;;;;;;5113045;28;20481;-88
2022/09/19 11:24:50;;;;;;;4.25;0.70;;;;;;;;;;5116324;28;20036;-89
2022/09/19 11:27:25;;;;;;;9.77;1.02;;;;;;;;;;5115813;28;20451;-89
2022/09/19 11:30:00;;;;;;;3.53;0.63;;;;;;;;;;5115640;28;20126;-89
2022/09/19 11:32:26;;;;;;;4.90;0.88;;;;;;;;;;5095545;28;20016;-89
2022/09/19 11:35:02;;;;;;;4.35;0.63;;;;;;;;;;5073955;28;20395;-89
2022/09/19 11:37:37;;;;;;;6.60;0.90;;;;;;;;;;5094952;28;20025;-88
2022/09/19 11:40:26;;;;;;;7.15;0.82;;;;;;;;;;5113750;28;20108;-88
2022/09/19 11:43:06;;;;;;;4.05;0.60;;;;;;;;;;5063970;28;20468;-88
2022/09/19 11:45:52;;;;;;;3.75;0.75;;;;;;;;;;5093884;28;20027;-89
2022/09/19 11:48:28;;;;;;;4.55;0.80;;;;;;;;;;5113282;28;20028;-89
2022/09/19 11:50:59;;;;;;;9.00;0.75;;;;;;;;;;5115533;28;20059;-89
2022/09/19 11:53:28;;;;;;;9.32;0.80;;;;;;;;;;5095759;28;20031;-86
2022/09/19 11:56:23;;;;;;;3.50;0.50;;;;;;;;;;5095087;28;20485;-89
2022/09/19 11:58:51;;;;;;;3.80;0.63;;;;;;;;;;5044764;28;20033;-89
2022/09/19 12:01:30;;;;;;;3.72;0.60;;;;;;;;;;5111449;28;20024;-89
2022/09/19 12:03:59;;;;;;;5.53;0.60;;;;;;;;;;5086757;28;20496;-88
2022/09/19 12:06:44;;;;;;;4.05;0.50;;;;;;;;;;5094760;28;20358;-87
2022/09/19 12:09:29;;;;;;;3.92;0.40;;;;;;;;;;5107750;28;20020;-87
2022/09/19 12:12:24;;;;;;;5.00;0.68;;;;;;;;;;5113950;28;20023;-88
2022/09/19 12:14:55;;;;;;;3.45;0.52;;;;;;;;;;5097329;28;20063;-86
2022/09/19 12:17:32;;;;;;;3.40;0.70;;;;;;;;;;5074849;28;20503;-87
2022/09/19 12:20:12;;;;;;;3.55;0.47;;;;;;;;;;5094568;28;20103;-88
2022/09/19 12:22:40;;;;;;;3.83;0.57;;;;;;;;;;5099624;28;20415;-87
2022/09/19 12:25:29;;;;;;;5.53;0.38;;;;;;;;;;5073157;28;20474;-87
2022/09/19 12:28:00;;;;;;;5.65;0.50;;;;;;;;;;5092926;28;20035;-87
2022/09/19 12:30:30;;;;;;;6.05;1.00;;;;;;;;;;5113729;28;20052;-87
2022/09/19 12:32:56;;;;;;;3.88;0.60;;;;;;;;;;5092720;28;20396;-88
2022/09/19 12:35:25;;;;;;;3.13;0.40;;;;;;;;;;5113161;28;20118;-86
2022/09/19 12:37:54;;;;;;;6.50;0.65;;;;;;;;;;5109604;28;20115;-86
2022/09/19 12:40:39;;;;;;;6.25;0.40;;;;;;;;;;5105303;28;20031;-85
2022/09/19 12:43:09;;;;;;;4.38;0.55;;;;;;;;;;5094191;28;20020;-87
2022/09/19 12:45:37;;;;;;;2.97;0.65;;;;;;;;;;5095257;28;20034;-86
2022/09/19 12:48:15;;;;;;;3.47;0.32;;;;;;;;;;5109281;28;20089;-91
2022/09/19 12:50:47;;;;;;;4.40;0.63;;;;;;;;;;5100927;28;20055;-89
2022/09/19 12:53:24;;;;;;;2.20;0.40;;;;;;;;;;5088002;28;20020;-88
2022/09/19 12:55:57;;;;;;;3.05;0.52;;;;;;;;;;5107333;28;20474;-87
2022/09/19 12:58:26;;;;;;;;;;;;;;;;;;5100098;28;20016;-89
2022/09/19 13:00:58;;;;;;;6.00;0.60;;;;;;;;;;5114212;28;19911;-91
2022/09/19 13:03:27;;;;;;;3.40;0.68;;;;;;;;;;5101851;28;20032;-88
2022/09/19 13:05:56;;;;;;;6.03;0.80;;;;;;;;;;5079594;28;20039;-85
2022/09/19 13:08:25;;;;;;;5.28;0.43;;;;;;;;;;5099451;28;20381;-89
2022/09/19 13:11:16;;;;;;;3.55;0.50;;;;;;;;;;5075138;28;20078;-89
2022/09/19 13:13:52;;;;;;;6.68;0.60;;;;;;;;;;5068690;28;20118;-89
2022/09/19 13:16:21;;;;;;;6.40;0.73;;;;;;;;;;5107215;28;20035;-89
2022/09/19 13:24:26;;;;;;;4.65;0.70;;;;;;;;;;5099919;28;20453;-90
2022/09/19 13:26:54;;;;;;;1.10;0.35;;;;;;;;;;5101564;28;20020;-90
2022/09/19 13:29:29;;;;;;;3.88;0.57;;;;;;;;;;5104478;28;20361;-89
2022/09/19 13:31:56;;;;;;;8.77;0.70;;;;;;;;;;5089203;28;20027;-89
2022/09/19 13:34:41;;;;;;;6.43;0.93;;;;;;;;;;5088351;28;20027;-88
2022/09/19 13:37:26;;;;;;;4.15;0.70;;;;;;;;;;5088868;28;20061;-86
2022/09/19 13:40:03;;;;;;;2.20;0.40;;;;;;;;;;5087535;28;20414;-85
2022/09/19 13:42:35;;;;;;;3.90;0.63;;;;;;;;;;5111920;28;20111;-85
2022/09/19 13:45:06;;;;;;;3.50;0.40;;;;;;;;;;5113231;28;20028;-85
2022/09/19 13:47:39;;;;;;;3.42;0.65;;;;;;;;;;5111604;28;20019;-84
2022/09/19 13:50:22;;;;;;;2.53;0.30;;;;;;;;;;5105802;28;20024;-85
2022/09/19 13:52:49;;;;;;;5.00;0.63;;;;;;;;;;5101662;28;20084;-85
2022/09/19 13:55:30;;;;;;;6.70;0.65;;;;;;;;;;5093740;28;20154;-84
2022/09/19 13:58:15;;;;;;;3.15;0.70;;;;;;;;;;5100243;28;20716;-84
2022/09/19 14:00:44;;;;;;;2.75;0.50;;;;;;;;;;5100874;28;20060;-83
2022/09/19 14:03:32;;;;;;;4.22;0.60;;;;;;;;;;5098764;28;20441;-84
2022/09/19 14:06:26;;;;;;;2.45;0.60;;;;;;;;;;5098744;28;20020;-85
2022/09/19 14:09:10;;;;;;;3.80;0.55;;;;;;;;;;5098926;28;20132;-86
2022/09/19 14:11:37;;;;;;;4.28;0.80;;;;;;;;;;5094435;28;20027;-85
2022/09/19 14:14:23;;;;;;;3.45;0.60;;;;;;;;;;5079885;28;20017;-86
2022/09/19 14:17:10;;;;;;;3.45;0.50;;;;;;;;;;5102697;28;20042;-85
2022/09/19 14:19:44;;;;;;;5.95;0.98;;;;;;;;;;5097809;28;20386;-86
2022/09/19 14:22:28;;;;;;;4.05;0.82;;;;;;;;;;5093044;28;20378;-82
2022/09/19 14:25:02;;;;;;;2.90;0.50;;;;;;;;;;5092835;28;20087;-86
2022/09/19 14:27:42;;;;;;;5.43;0.60;;;;;;;;;;5092639;28;20024;-84
2022/09/19 14:30:18;;;;;;;4.50;0.80;;;;;;;;;;5074124;28;20024;-86
2022/09/19 14:32:50;;;;;;;9.63;0.80;;;;;;;;;;5092578;28;20024;-84
2022/09/19 14:35:23;;;;;;;4.60;0.65;;;;;;;;;;5074314;28;20386;-87
2022/09/19 14:38:10;;;;;;;6.43;1.10;;;;;;;;;;5096872;28;20016;-80
2022/09/19 14:40:38;;;;;;;4.85;1.08;;;;;;;;;;5096607;28;20027;-87
2022/09/19 14:43:22;;;;;;;5.75;0.70;;;;;;;;;;5096303;28;20020;-85
2022/09/19 14:46:09;;;;;;;5.40;0.93;;;;;;;;;;5101519;28;20039;-87
2022/09/19 14:48:47;;;;;;;4.97;0.68;;;;;;;;;;5116767;28;20030;-87
2022/09/19 14:51:36;;;;;;;5.65;0.80;;;;;;;;;;5098102;28;20034;-86
2022/09/19 14:54:16;;;;;;;7.15;1.33;;;;;;;;;;5116833;28;20020;-81
2022/09/19 14:56:53;;;;;;;9.55;1.48;;;;;;;;;;5097916;28;20052;-80
2022/09/19 14:59:22;;;;;;;10.55;1.38;;;;;;;;;;5116927;28;20020;-79
2022/09/19 15:01:53;;;;;;;7.50;0.82;;;;;;;;;;5116754;28;20027;-80
2022/09/19 15:04:23;;;;;;;5.90;0.80;;;;;;;;;;5116687;28;20034;-80
2022/09/19 15:06:52;;;;;;;6.00;0.75;;;;;;;;;;5116490;28;20023;-85
2022/09/19 15:09:19;;;;;;;6.88;1.42;;;;;;;;;;5114357;28;20027;-88
2022/09/19 15:11:54;;;;;;;6.72;0.75;;;;;;;;;;5105759;28;20115;-88
2022/09/19 15:14:22;;;;;;;9.50;1.05;;;;;;;;;;5105751;28;20103;-87
2022/09/19 15:16:50;;;;;;;8.13;1.08;;;;;;;;;;5101998;28;20501;-86
2022/09/19 15:19:17;;;;;;;10.10;1.20;;;;;;;;;;5084553;28;20498;-86